sensor_id;sensor_type;location;lat;lon;timestamp;pressure;altitude;pressure_sealevel;temperature;humidity
11952;BME280;6036;41.840;23.486;2022-08-03T00:02:23;90641.03;;;21.24;47.38
11952;BME280;6036;41.840;23.486;2022-08-03T00:04:48;90638.28;;;21.34;47.13
11952;BME280;6036;41.840;23.486;2022-08-03T00:07:15;90633.31;;;21.36;47.16
11952;BME280;6036;41.840;23.486;2022-08-03T00:09:40;90632.50;;;21.43;46.74
11952;BME280;6036;41.840;23.486;2022-08-03T00:12:06;90620.00;;;21.40;46.72
11952;BME280;6036;41.840;23.486;2022-08-03T00:14:31;90619.19;;;21.43;46.76
11952;BME280;6036;41.840;23.486;2022-08-03T00:16:57;90623.19;;;21.21;47.12
11952;BME280;6036;41.840;23.486;2022-08-03T00:19:22;90633.41;;;21.26;46.93
11952;BME280;6036;41.840;23.486;2022-08-03T00:21:48;90625.66;;;21.42;46.91
11952;BME280;6036;41.840;23.486;2022-08-03T00:24:13;90623.72;;;21.46;46.72
11952;BME280;6036;41.840;23.486;2022-08-03T00:26:39;90631.28;;;21.51;46.17
11952;BME280;6036;41.840;23.486;2022-08-03T00:29:04;90630.34;;;21.72;46.30
11952;BME280;6036;41.840;23.486;2022-08-03T00:31:29;90624.78;;;21.56;46.46
11952;BME280;6036;41.840;23.486;2022-08-03T00:33:55;90635.97;;;21.36;47.62
11952;BME280;6036;41.840;23.486;2022-08-03T00:36:20;90623.00;;;21.42;47.26
11952;BME280;6036;41.840;23.486;2022-08-03T00:38:46;90628.56;;;21.14;48.31
11952;BME280;6036;41.840;23.486;2022-08-03T00:41:11;90626.88;;;21.34;48.32
11952;BME280;6036;41.840;23.486;2022-08-03T00:43:37;90634.56;;;21.25;48.49
11952;BME280;6036;41.840;23.486;2022-08-03T00:46:02;90621.63;;;21.23;48.25
11952;BME280;6036;41.840;23.486;2022-08-03T00:48:28;90636.25;;;21.49;47.87
11952;BME280;6036;41.840;23.486;2022-08-03T00:50:53;90631.25;;;21.55;47.55
11952;BME280;6036;41.840;23.486;2022-08-03T00:53:19;90637.16;;;21.32;48.08
11952;BME280;6036;41.840;23.486;2022-08-03T00:55:44;90629.25;;;21.21;49.06
11952;BME280;6036;41.840;23.486;2022-08-03T00:58:10;90630.81;;;21.19;48.71
11952;BME280;6036;41.840;23.486;2022-08-03T01:00:39;90636.97;;;21.09;49.02
11952;BME280;6036;41.840;23.486;2022-08-03T01:03:09;90633.09;;;21.17;48.87
11952;BME280;6036;41.840;23.486;2022-08-03T01:05:43;90633.19;;;21.06;48.84
11952;BME280;6036;41.840;23.486;2022-08-03T01:11:24;90639.84;;;20.73;49.74
11952;BME280;6036;41.840;23.486;2022-08-03T01:16:36;90638.63;;;20.85;49.39
11952;BME280;6036;41.840;23.486;2022-08-03T01:23:05;90639.91;;;21.25;48.38
11952;BME280;6036;41.840;23.486;2022-08-03T01:28:27;90640.13;;;20.90;47.87
11952;BME280;6036;41.840;23.486;2022-08-03T01:31:01;90637.91;;;20.77;48.74
11952;BME280;6036;41.840;23.486;2022-08-03T01:33:38;90635.94;;;20.27;50.08
11952;BME280;6036;41.840;23.486;2022-08-03T01:36:10;90636.81;;;20.71;49.47
11952;BME280;6036;41.840;23.486;2022-08-03T01:39:00;90632.59;;;20.77;49.57
11952;BME280;6036;41.840;23.486;2022-08-03T01:41:32;90632.84;;;20.35;50.48
11952;BME280;6036;41.840;23.486;2022-08-03T01:44:00;90635.13;;;20.37;50.43
11952;BME280;6036;41.840;23.486;2022-08-03T01:46:28;90627.53;;;20.35;50.49
11952;BME280;6036;41.840;23.486;2022-08-03T01:48:55;90632.94;;;20.07;51.25
11952;BME280;6036;41.840;23.486;2022-08-03T01:51:21;90621.28;;;19.73;52.12
11952;BME280;6036;41.840;23.486;2022-08-03T01:53:49;90623.88;;;19.90;51.55
11952;BME280;6036;41.840;23.486;2022-08-03T01:56:18;90610.63;;;19.83;51.76
11952;BME280;6036;41.840;23.486;2022-08-03T01:58:45;90621.97;;;19.98;51.32
11952;BME280;6036;41.840;23.486;2022-08-03T02:01:14;90613.59;;;20.03;51.12
11952;BME280;6036;41.840;23.486;2022-08-03T02:03:42;90618.84;;;20.17;51.02
11952;BME280;6036;41.840;23.486;2022-08-03T02:06:11;90615.00;;;20.36;50.31
11952;BME280;6036;41.840;23.486;2022-08-03T02:08:38;90615.72;;;20.43;50.57
11952;BME280;6036;41.840;23.486;2022-08-03T02:11:05;90618.84;;;20.24;51.48
11952;BME280;6036;41.840;23.486;2022-08-03T02:13:32;90614.72;;;20.09;51.30
11952;BME280;6036;41.840;23.486;2022-08-03T02:15:58;90609.34;;;20.20;51.31
11952;BME280;6036;41.840;23.486;2022-08-03T02:18:26;90615.00;;;20.32;50.48
11952;BME280;6036;41.840;23.486;2022-08-03T02:20:51;90614.78;;;19.91;52.10
11952;BME280;6036;41.840;23.486;2022-08-03T02:23:17;90609.41;;;20.05;51.61
11952;BME280;6036;41.840;23.486;2022-08-03T02:25:46;90613.16;;;20.19;51.02
11952;BME280;6036;41.840;23.486;2022-08-03T02:28:19;90623.09;;;20.00;51.90
11952;BME280;6036;41.840;23.486;2022-08-03T02:30:52;90621.28;;;19.66;53.01
11952;BME280;6036;41.840;23.486;2022-08-03T02:33:27;90617.91;;;19.62;53.34
11952;BME280;6036;41.840;23.486;2022-08-03T02:35:55;90620.88;;;19.85;52.64
11952;BME280;6036;41.840;23.486;2022-08-03T02:38:26;90613.69;;;19.71;53.11
11952;BME280;6036;41.840;23.486;2022-08-03T02:40:54;90611.00;;;19.89;52.50
11952;BME280;6036;41.840;23.486;2022-08-03T02:43:22;90608.72;;;19.87;52.36
11952;BME280;6036;41.840;23.486;2022-08-03T02:45:49;90615.94;;;19.83;52.65
11952;BME280;6036;41.840;23.486;2022-08-03T02:48:17;90614.09;;;19.70;52.91
11952;BME280;6036;41.840;23.486;2022-08-03T02:50:45;90610.19;;;19.99;52.18
11952;BME280;6036;41.840;23.486;2022-08-03T02:53:12;90606.81;;;19.88;52.81
11952;BME280;6036;41.840;23.486;2022-08-03T02:55:38;90604.97;;;19.71;53.54
11952;BME280;6036;41.840;23.486;2022-08-03T02:58:05;90604.59;;;19.79;52.83
11952;BME280;6036;41.840;23.486;2022-08-03T03:00:32;90606.44;;;19.86;53.54
11952;BME280;6036;41.840;23.486;2022-08-03T03:02:59;90604.94;;;19.81;53.19
11952;BME280;6036;41.840;23.486;2022-08-03T03:05:27;90601.47;;;19.98;52.96
11952;BME280;6036;41.840;23.486;2022-08-03T03:07:53;90609.50;;;19.84;52.85
11952;BME280;6036;41.840;23.486;2022-08-03T03:10:21;90614.44;;;19.82;52.88
11952;BME280;6036;41.840;23.486;2022-08-03T03:12:49;90617.94;;;19.55;53.65
11952;BME280;6036;41.840;23.486;2022-08-03T03:15:16;90610.69;;;19.69;52.77
11952;BME280;6036;41.840;23.486;2022-08-03T03:17:42;90611.06;;;19.61;53.37
11952;BME280;6036;41.840;23.486;2022-08-03T03:20:08;90612.66;;;19.37;54.15
11952;BME280;6036;41.840;23.486;2022-08-03T03:22:34;90618.31;;;19.50;53.95
11952;BME280;6036;41.840;23.486;2022-08-03T03:25:00;90618.34;;;19.42;54.13
11952;BME280;6036;41.840;23.486;2022-08-03T03:27:26;90619.84;;;19.36;54.00
11952;BME280;6036;41.840;23.486;2022-08-03T03:29:52;90621.34;;;19.55;53.72
11952;BME280;6036;41.840;23.486;2022-08-03T03:32:17;90619.75;;;19.79;53.10
11952;BME280;6036;41.840;23.486;2022-08-03T03:34:43;90627.72;;;19.75;53.36
11952;BME280;6036;41.840;23.486;2022-08-03T03:37:09;90622.47;;;19.29;54.06
11952;BME280;6036;41.840;23.486;2022-08-03T03:39:35;90628.16;;;19.53;53.31
11952;BME280;6036;41.840;23.486;2022-08-03T03:42:01;90626.19;;;19.78;52.80
11952;BME280;6036;41.840;23.486;2022-08-03T03:44:28;90628.50;;;19.69;52.70
11952;BME280;6036;41.840;23.486;2022-08-03T03:46:54;90635.28;;;19.84;52.82
11952;BME280;6036;41.840;23.486;2022-08-03T03:49:20;90631.41;;;20.02;52.10
11952;BME280;6036;41.840;23.486;2022-08-03T03:51:45;90635.16;;;20.19;52.02
11952;BME280;6036;41.840;23.486;2022-08-03T03:54:11;90646.97;;;20.11;52.09
11952;BME280;6036;41.840;23.486;2022-08-03T03:56:36;90635.09;;;20.40;51.48
11952;BME280;6036;41.840;23.486;2022-08-03T03:59:02;90648.78;;;20.39;51.65
11952;BME280;6036;41.840;23.486;2022-08-03T04:01:29;90643.50;;;20.28;51.77
11952;BME280;6036;41.840;23.486;2022-08-03T04:03:54;90649.56;;;20.32;51.53
11952;BME280;6036;41.840;23.486;2022-08-03T04:06:20;90629.50;;;20.24;51.54
11952;BME280;6036;41.840;23.486;2022-08-03T04:09:04;90655.63;;;20.33;51.63
11952;BME280;6036;41.840;23.486;2022-08-03T04:11:54;90646.25;;;20.80;50.49
11952;BME280;6036;41.840;23.486;2022-08-03T04:14:24;90655.84;;;20.66;50.46
11952;BME280;6036;41.840;23.486;2022-08-03T04:16:55;90647.84;;;20.70;50.21
11952;BME280;6036;41.840;23.486;2022-08-03T04:19:31;90650.81;;;20.83;50.21
11952;BME280;6036;41.840;23.486;2022-08-03T04:22:00;90643.75;;;20.58;51.04
11952;BME280;6036;41.840;23.486;2022-08-03T04:24:32;90650.16;;;20.64;51.19
11952;BME280;6036;41.840;23.486;2022-08-03T04:27:01;90655.31;;;20.93;50.59
11952;BME280;6036;41.840;23.486;2022-08-03T04:29:32;90658.78;;;20.83;50.70
11952;BME280;6036;41.840;23.486;2022-08-03T04:31:58;90669.69;;;21.06;50.12
11952;BME280;6036;41.840;23.486;2022-08-03T04:34:24;90660.41;;;21.28;49.57
11952;BME280;6036;41.840;23.486;2022-08-03T04:36:52;90661.91;;;21.29;49.61
11952;BME280;6036;41.840;23.486;2022-08-03T04:39:26;90668.81;;;21.19;49.53
11952;BME280;6036;41.840;23.486;2022-08-03T04:41:57;90668.22;;;20.94;50.48
11952;BME280;6036;41.840;23.486;2022-08-03T04:44:24;90664.38;;;21.06;49.97
11952;BME280;6036;41.840;23.486;2022-08-03T04:46:51;90673.38;;;21.22;49.87
11952;BME280;6036;41.840;23.486;2022-08-03T04:49:19;90673.75;;;21.65;48.82
11952;BME280;6036;41.840;23.486;2022-08-03T04:51:47;90666.94;;;21.64;48.35
11952;BME280;6036;41.840;23.486;2022-08-03T04:54:14;90674.75;;;21.41;48.73
11952;BME280;6036;41.840;23.486;2022-08-03T04:56:43;90672.34;;;21.54;48.63
11952;BME280;6036;41.840;23.486;2022-08-03T04:59:09;90668.41;;;21.69;48.53
11952;BME280;6036;41.840;23.486;2022-08-03T05:01:35;90680.34;;;21.98;47.87
11952;BME280;6036;41.840;23.486;2022-08-03T05:04:01;90677.34;;;21.92;47.40
11952;BME280;6036;41.840;23.486;2022-08-03T05:06:26;90670.44;;;21.58;48.19
11952;BME280;6036;41.840;23.486;2022-08-03T05:08:52;90669.31;;;21.55;48.52
11952;BME280;6036;41.840;23.486;2022-08-03T05:11:17;90674.06;;;21.74;47.86
11952;BME280;6036;41.840;23.486;2022-08-03T05:13:46;90667.56;;;22.50;46.88
11952;BME280;6036;41.840;23.486;2022-08-03T05:16:13;90679.94;;;22.67;45.52
11952;BME280;6036;41.840;23.486;2022-08-03T05:18:39;90668.69;;;22.83;44.97
11952;BME280;6036;41.840;23.486;2022-08-03T05:21:05;90666.72;;;22.87;44.67
11952;BME280;6036;41.840;23.486;2022-08-03T05:23:30;90667.44;;;23.17;43.47
11952;BME280;6036;41.840;23.486;2022-08-03T05:25:56;90670.31;;;23.30;43.08
11952;BME280;6036;41.840;23.486;2022-08-03T05:28:22;90670.34;;;23.76;42.40
11952;BME280;6036;41.840;23.486;2022-08-03T05:30:47;90671.72;;;23.38;43.05
11952;BME280;6036;41.840;23.486;2022-08-03T05:33:13;90675.59;;;23.33;42.76
11952;BME280;6036;41.840;23.486;2022-08-03T05:35:39;90668.28;;;22.54;44.93
11952;BME280;6036;41.840;23.486;2022-08-03T05:38:04;90673.53;;;22.91;44.19
11952;BME280;6036;41.840;23.486;2022-08-03T05:40:30;90677.22;;;23.77;42.92
11952;BME280;6036;41.840;23.486;2022-08-03T05:42:56;90681.28;;;24.05;43.13
11952;BME280;6036;41.840;23.486;2022-08-03T05:45:22;90679.44;;;23.33;47.09
11952;BME280;6036;41.840;23.486;2022-08-03T05:47:48;90692.69;;;23.63;46.07
11952;BME280;6036;41.840;23.486;2022-08-03T05:50:16;90684.06;;;23.78;45.31
11952;BME280;6036;41.840;23.486;2022-08-03T05:52:42;90680.81;;;24.33;43.87
11952;BME280;6036;41.840;23.486;2022-08-03T05:55:09;90698.19;;;25.20;41.77
11952;BME280;6036;41.840;23.486;2022-08-03T05:57:34;90693.00;;;25.29;41.42
11952;BME280;6036;41.840;23.486;2022-08-03T06:00:03;90694.81;;;25.84;39.59
11952;BME280;6036;41.840;23.486;2022-08-03T06:02:29;90689.88;;;26.43;39.71
11952;BME280;6036;41.840;23.486;2022-08-03T06:04:55;90689.97;;;25.63;40.69
11952;BME280;6036;41.840;23.486;2022-08-03T06:07:20;90695.91;;;25.87;40.85
11952;BME280;6036;41.840;23.486;2022-08-03T06:09:46;90701.59;;;26.21;40.21
11952;BME280;6036;41.840;23.486;2022-08-03T06:12:11;90697.22;;;26.84;38.86
11952;BME280;6036;41.840;23.486;2022-08-03T06:14:36;90694.94;;;27.87;37.59
11952;BME280;6036;41.840;23.486;2022-08-03T06:17:02;90698.19;;;27.57;38.54
11952;BME280;6036;41.840;23.486;2022-08-03T06:19:27;90701.75;;;27.54;38.74
11952;BME280;6036;41.840;23.486;2022-08-03T06:21:53;90696.19;;;28.20;36.57
11952;BME280;6036;41.840;23.486;2022-08-03T06:24:18;90697.34;;;27.60;36.87
11952;BME280;6036;41.840;23.486;2022-08-03T06:26:44;90693.66;;;27.79;36.17
11952;BME280;6036;41.840;23.486;2022-08-03T06:29:09;90691.34;;;28.50;35.35
11952;BME280;6036;41.840;23.486;2022-08-03T06:31:34;90691.81;;;28.35;34.86
11952;BME280;6036;41.840;23.486;2022-08-03T06:34:04;90687.59;;;28.00;35.04
11952;BME280;6036;41.840;23.486;2022-08-03T06:36:30;90686.47;;;27.51;36.89
11952;BME280;6036;41.840;23.486;2022-08-03T06:38:56;90690.03;;;28.20;36.16
11952;BME280;6036;41.840;23.486;2022-08-03T06:41:23;90693.91;;;28.66;34.58
11952;BME280;6036;41.840;23.486;2022-08-03T06:43:48;90693.50;;;28.98;33.97
11952;BME280;6036;41.840;23.486;2022-08-03T06:46:13;90687.88;;;29.05;34.31
11952;BME280;6036;41.840;23.486;2022-08-03T06:48:39;90694.03;;;28.50;34.18
11952;BME280;6036;41.840;23.486;2022-08-03T06:51:04;90695.34;;;28.45;34.29
11952;BME280;6036;41.840;23.486;2022-08-03T06:53:30;90691.19;;;29.09;32.41
11952;BME280;6036;41.840;23.486;2022-08-03T06:55:55;90688.63;;;29.67;30.26
11952;BME280;6036;41.840;23.486;2022-08-03T06:58:20;90688.16;;;29.59;31.23
11952;BME280;6036;41.840;23.486;2022-08-03T07:00:46;90683.84;;;30.29;30.36
11952;BME280;6036;41.840;23.486;2022-08-03T07:03:11;90682.78;;;29.69;30.76
11952;BME280;6036;41.840;23.486;2022-08-03T07:05:36;90688.09;;;29.81;31.02
11952;BME280;6036;41.840;23.486;2022-08-03T07:08:01;90683.44;;;30.76;30.48
11952;BME280;6036;41.840;23.486;2022-08-03T07:10:27;90678.28;;;31.74;28.87
11952;BME280;6036;41.840;23.486;2022-08-03T07:12:53;90679.84;;;32.23;28.05
11952;BME280;6036;41.840;23.486;2022-08-03T07:15:18;90685.31;;;32.37;27.67
11952;BME280;6036;41.840;23.486;2022-08-03T07:17:44;90689.19;;;32.45;27.39
11952;BME280;6036;41.840;23.486;2022-08-03T07:20:10;90680.09;;;31.17;28.28
11952;BME280;6036;41.840;23.486;2022-08-03T07:22:37;90679.78;;;31.75;28.84
11952;BME280;6036;41.840;23.486;2022-08-03T07:25:03;90679.16;;;31.29;28.17
11952;BME280;6036;41.840;23.486;2022-08-03T07:27:29;90690.19;;;31.68;28.45
11952;BME280;6036;41.840;23.486;2022-08-03T07:29:55;90684.78;;;31.68;27.71
11952;BME280;6036;41.840;23.486;2022-08-03T07:32:22;90683.19;;;31.52;27.87
11952;BME280;6036;41.840;23.486;2022-08-03T07:34:48;90687.00;;;32.11;28.67
11952;BME280;6036;41.840;23.486;2022-08-03T07:37:13;90688.25;;;32.25;26.70
11952;BME280;6036;41.840;23.486;2022-08-03T07:39:39;90683.56;;;31.09;28.79
11952;BME280;6036;41.840;23.486;2022-08-03T07:42:04;90684.00;;;31.76;27.92
11952;BME280;6036;41.840;23.486;2022-08-03T07:44:29;90679.84;;;31.99;27.78
11952;BME280;6036;41.840;23.486;2022-08-03T07:46:55;90691.09;;;32.77;27.57
11952;BME280;6036;41.840;23.486;2022-08-03T07:49:21;90689.13;;;33.75;25.41
11952;BME280;6036;41.840;23.486;2022-08-03T07:51:46;90692.84;;;34.47;24.70
11952;BME280;6036;41.840;23.486;2022-08-03T07:54:32;90684.25;;;33.20;25.46
11952;BME280;6036;41.840;23.486;2022-08-03T07:56:57;90691.00;;;33.39;25.86
11952;BME280;6036;41.840;23.486;2022-08-03T07:59:22;90694.91;;;33.53;25.68
11952;BME280;6036;41.840;23.486;2022-08-03T08:01:48;90688.53;;;33.85;23.80
11952;BME280;6036;41.840;23.486;2022-08-03T08:04:14;90685.75;;;33.80;24.61
11952;BME280;6036;41.840;23.486;2022-08-03T08:06:39;90683.53;;;34.13;23.08
11952;BME280;6036;41.840;23.486;2022-08-03T08:09:05;90692.00;;;34.55;23.50
11952;BME280;6036;41.840;23.486;2022-08-03T08:11:30;90683.53;;;34.94;23.47
11952;BME280;6036;41.840;23.486;2022-08-03T08:13:55;90687.09;;;35.51;22.47
11952;BME280;6036;41.840;23.486;2022-08-03T08:16:21;90680.03;;;34.47;23.13
11952;BME280;6036;41.840;23.486;2022-08-03T08:18:46;90681.69;;;33.90;23.81
11952;BME280;6036;41.840;23.486;2022-08-03T08:21:12;90672.91;;;33.80;24.36
11952;BME280;6036;41.840;23.486;2022-08-03T08:23:37;90677.97;;;33.73;24.19
11952;BME280;6036;41.840;23.486;2022-08-03T08:26:03;90674.88;;;33.51;23.96
11952;BME280;6036;41.840;23.486;2022-08-03T08:28:28;90670.88;;;34.10;23.66
11952;BME280;6036;41.840;23.486;2022-08-03T08:30:53;90665.41;;;33.75;23.44
11952;BME280;6036;41.840;23.486;2022-08-03T08:33:19;90665.31;;;32.97;23.73
11952;BME280;6036;41.840;23.486;2022-08-03T08:35:44;90668.84;;;34.60;23.35
11952;BME280;6036;41.840;23.486;2022-08-03T08:38:10;90670.88;;;34.10;21.61
11952;BME280;6036;41.840;23.486;2022-08-03T08:40:36;90663.97;;;33.30;22.70
11952;BME280;6036;41.840;23.486;2022-08-03T08:43:01;90659.72;;;34.63;20.86
11952;BME280;6036;41.840;23.486;2022-08-03T08:45:27;90664.94;;;34.46;22.29
11952;BME280;6036;41.840;23.486;2022-08-03T08:47:54;90661.41;;;34.81;22.18
11952;BME280;6036;41.840;23.486;2022-08-03T08:50:20;90663.84;;;35.24;21.74
11952;BME280;6036;41.840;23.486;2022-08-03T08:52:48;90654.41;;;36.08;21.68
11952;BME280;6036;41.840;23.486;2022-08-03T08:55:18;90660.44;;;36.23;20.11
11952;BME280;6036;41.840;23.486;2022-08-03T08:57:50;90645.75;;;34.96;21.15
11952;BME280;6036;41.840;23.486;2022-08-03T09:00:17;90650.66;;;36.06;21.76
11952;BME280;6036;41.840;23.486;2022-08-03T09:02:44;90648.38;;;35.36;21.47
11952;BME280;6036;41.840;23.486;2022-08-03T09:05:11;90646.00;;;35.80;21.61
11952;BME280;6036;41.840;23.486;2022-08-03T09:07:38;90646.41;;;35.62;21.22
11952;BME280;6036;41.840;23.486;2022-08-03T09:10:06;90637.88;;;35.86;21.25
11952;BME280;6036;41.840;23.486;2022-08-03T09:12:37;90653.78;;;36.30;21.01
11952;BME280;6036;41.840;23.486;2022-08-03T09:17:47;90647.44;;;37.14;19.48
11952;BME280;6036;41.840;23.486;2022-08-03T09:20:13;90650.38;;;36.99;19.41
11952;BME280;6036;41.840;23.486;2022-08-03T09:23:08;90645.19;;;36.96;20.37
11952;BME280;6036;41.840;23.486;2022-08-03T09:25:40;90652.41;;;37.21;18.14
11952;BME280;6036;41.840;23.486;2022-08-03T09:28:16;90655.66;;;37.36;19.25
11952;BME280;6036;41.840;23.486;2022-08-03T09:30:44;90654.13;;;37.07;19.67
11952;BME280;6036;41.840;23.486;2022-08-03T09:33:13;90647.69;;;37.10;19.05
11952;BME280;6036;41.840;23.486;2022-08-03T09:35:42;90643.41;;;35.97;19.85
11952;BME280;6036;41.840;23.486;2022-08-03T09:40:41;90644.53;;;36.16;20.37
11952;BME280;6036;41.840;23.486;2022-08-03T09:43:08;90644.84;;;35.87;19.13
11952;BME280;6036;41.840;23.486;2022-08-03T09:45:34;90640.69;;;36.39;19.61
11952;BME280;6036;41.840;23.486;2022-08-03T09:48:26;90634.63;;;36.13;18.47
11952;BME280;6036;41.840;23.486;2022-08-03T09:50:58;90624.00;;;35.84;20.18
11952;BME280;6036;41.840;23.486;2022-08-03T09:53:24;90632.91;;;35.22;20.58
11952;BME280;6036;41.840;23.486;2022-08-03T09:56:00;90635.22;;;36.39;20.43
11952;BME280;6036;41.840;23.486;2022-08-03T09:58:27;90640.16;;;35.93;20.09
11952;BME280;6036;41.840;23.486;2022-08-03T10:03:20;90625.88;;;35.67;19.09
11952;BME280;6036;41.840;23.486;2022-08-03T10:05:46;90627.41;;;35.73;18.95
11952;BME280;6036;41.840;23.486;2022-08-03T10:08:16;90626.63;;;34.64;19.74
11952;BME280;6036;41.840;23.486;2022-08-03T10:10:44;90626.56;;;35.99;20.16
11952;BME280;6036;41.840;23.486;2022-08-03T10:13:13;90617.00;;;36.09;19.89
11952;BME280;6036;41.840;23.486;2022-08-03T10:15:39;90623.91;;;35.67;19.14
11952;BME280;6036;41.840;23.486;2022-08-03T10:18:05;90618.56;;;34.96;21.08
11952;BME280;6036;41.840;23.486;2022-08-03T10:20:35;90608.66;;;34.73;20.48
11952;BME280;6036;41.840;23.486;2022-08-03T10:23:01;90620.59;;;34.55;21.07
11952;BME280;6036;41.840;23.486;2022-08-03T10:25:29;90615.00;;;34.64;21.13
11952;BME280;6036;41.840;23.486;2022-08-03T10:27:55;90610.44;;;34.76;21.13
11952;BME280;6036;41.840;23.486;2022-08-03T10:30:23;90608.78;;;34.84;21.44
11952;BME280;6036;41.840;23.486;2022-08-03T10:32:54;90610.50;;;34.41;20.84
11952;BME280;6036;41.840;23.486;2022-08-03T10:35:22;90618.63;;;34.55;21.61
11952;BME280;6036;41.840;23.486;2022-08-03T10:37:55;90612.69;;;33.82;22.54
11952;BME280;6036;41.840;23.486;2022-08-03T10:40:22;90620.94;;;33.73;22.76
11952;BME280;6036;41.840;23.486;2022-08-03T10:42:52;90625.22;;;33.94;22.68
11952;BME280;6036;41.840;23.486;2022-08-03T10:45:28;90607.72;;;33.60;22.63
11952;BME280;6036;41.840;23.486;2022-08-03T10:47:58;90611.91;;;32.88;23.30
11952;BME280;6036;41.840;23.486;2022-08-03T10:50:24;90608.09;;;33.09;22.96
11952;BME280;6036;41.840;23.486;2022-08-03T10:52:58;90605.09;;;32.93;23.77
11952;BME280;6036;41.840;23.486;2022-08-03T10:55:35;90600.81;;;33.30;22.79
11952;BME280;6036;41.840;23.486;2022-08-03T11:01:09;90611.50;;;32.28;24.56
11952;BME280;6036;41.840;23.486;2022-08-03T11:08:45;90603.16;;;31.27;25.99
11952;BME280;6036;41.840;23.486;2022-08-03T11:14:05;90604.38;;;31.59;25.47
11952;BME280;6036;41.840;23.486;2022-08-03T11:19:16;90603.97;;;32.99;24.32
11952;BME280;6036;41.840;23.486;2022-08-03T11:27:28;90598.38;;;32.50;24.47
11952;BME280;6036;41.840;23.486;2022-08-03T11:35:23;90584.31;;;32.90;24.89
11952;BME280;6036;41.840;23.486;2022-08-03T11:38:01;90581.06;;;31.85;26.48
11952;BME280;6036;41.840;23.486;2022-08-03T11:40:46;90571.97;;;31.41;27.04
11952;BME280;6036;41.840;23.486;2022-08-03T11:45:59;90579.78;;;31.48;26.71
11952;BME280;6036;41.840;23.486;2022-08-03T11:48:26;90580.38;;;31.52;27.84
11952;BME280;6036;41.840;23.486;2022-08-03T11:50:53;90577.06;;;31.48;28.17
11952;BME280;6036;41.840;23.486;2022-08-03T11:53:19;90575.78;;;31.67;26.83
11952;BME280;6036;41.840;23.486;2022-08-03T11:55:46;90580.72;;;31.69;27.48
11952;BME280;6036;41.840;23.486;2022-08-03T11:58:19;90585.00;;;31.19;27.68
11952;BME280;6036;41.840;23.486;2022-08-03T12:00:45;90588.88;;;31.27;27.76
11952;BME280;6036;41.840;23.486;2022-08-03T12:03:12;90593.53;;;31.26;27.11
11952;BME280;6036;41.840;23.486;2022-08-03T12:05:47;90589.28;;;30.93;28.62
11952;BME280;6036;41.840;23.486;2022-08-03T12:08:17;90583.91;;;30.83;27.81
11952;BME280;6036;41.840;23.486;2022-08-03T12:10:49;90586.00;;;31.30;27.53
11952;BME280;6036;41.840;23.486;2022-08-03T12:13:16;90579.81;;;31.39;26.98
11952;BME280;6036;41.840;23.486;2022-08-03T12:15:42;90588.22;;;31.50;28.10
11952;BME280;6036;41.840;23.486;2022-08-03T12:18:16;90591.28;;;31.25;28.65
11952;BME280;6036;41.840;23.486;2022-08-03T12:20:43;90586.22;;;31.50;27.94
11952;BME280;6036;41.840;23.486;2022-08-03T12:23:10;90592.75;;;31.35;28.94
11952;BME280;6036;41.840;23.486;2022-08-03T12:25:38;90593.34;;;31.72;28.14
11952;BME280;6036;41.840;23.486;2022-08-03T12:30:33;90590.50;;;30.82;28.03
11952;BME280;6036;41.840;23.486;2022-08-03T12:36:07;90596.09;;;31.21;27.60
11952;BME280;6036;41.840;23.486;2022-08-03T12:38:36;90594.25;;;31.36;27.57
11952;BME280;6036;41.840;23.486;2022-08-03T12:41:07;90599.03;;;31.50;26.96
11952;BME280;6036;41.840;23.486;2022-08-03T12:43:36;90602.72;;;31.62;26.18
11952;BME280;6036;41.840;23.486;2022-08-03T12:46:13;90604.47;;;31.32;25.87
11952;BME280;6036;41.840;23.486;2022-08-03T12:49:01;90603.91;;;31.19;26.56
11952;BME280;6036;41.840;23.486;2022-08-03T12:51:28;90608.28;;;31.16;26.55
11952;BME280;6036;41.840;23.486;2022-08-03T12:53:55;90608.94;;;31.02;26.84
11952;BME280;6036;41.840;23.486;2022-08-03T12:56:22;90609.41;;;31.01;26.54
11952;BME280;6036;41.840;23.486;2022-08-03T12:58:47;90615.03;;;31.21;26.37
11952;BME280;6036;41.840;23.486;2022-08-03T13:01:15;90610.63;;;30.72;26.92
11952;BME280;6036;41.840;23.486;2022-08-03T13:03:48;90608.88;;;30.51;27.00
11952;BME280;6036;41.840;23.486;2022-08-03T13:06:16;90606.59;;;30.32;27.32
11952;BME280;6036;41.840;23.486;2022-08-03T13:08:42;90613.06;;;30.43;26.77
11952;BME280;6036;41.840;23.486;2022-08-03T13:11:27;90610.34;;;30.70;26.98
11952;BME280;6036;41.840;23.486;2022-08-03T13:13:53;90608.22;;;30.93;26.26
11952;BME280;6036;41.840;23.486;2022-08-03T13:16:20;90616.34;;;30.11;26.92
11952;BME280;6036;41.840;23.486;2022-08-03T13:18:47;90618.94;;;30.42;27.29
11952;BME280;6036;41.840;23.486;2022-08-03T13:21:14;90619.19;;;30.62;27.16
11952;BME280;6036;41.840;23.486;2022-08-03T13:23:41;90621.94;;;30.44;28.64
11952;BME280;6036;41.840;23.486;2022-08-03T13:26:07;90631.94;;;30.88;27.61
11952;BME280;6036;41.840;23.486;2022-08-03T13:28:33;90627.16;;;30.65;27.50
11952;BME280;6036;41.840;23.486;2022-08-03T13:30:58;90631.34;;;30.30;27.74
11952;BME280;6036;41.840;23.486;2022-08-03T13:33:25;90629.72;;;30.69;28.27
11952;BME280;6036;41.840;23.486;2022-08-03T13:35:51;90631.50;;;30.81;28.08
11952;BME280;6036;41.840;23.486;2022-08-03T13:38:17;90633.75;;;30.64;28.56
11952;BME280;6036;41.840;23.486;2022-08-03T13:40:42;90632.13;;;29.63;30.28
11952;BME280;6036;41.840;23.486;2022-08-03T13:43:08;90633.34;;;29.32;31.50
11952;BME280;6036;41.840;23.486;2022-08-03T13:45:33;90632.44;;;29.75;29.88
11952;BME280;6036;41.840;23.486;2022-08-03T13:47:59;90633.09;;;29.88;30.96
11952;BME280;6036;41.840;23.486;2022-08-03T13:50:24;90641.72;;;29.25;32.99
11952;BME280;6036;41.840;23.486;2022-08-03T13:52:49;90630.34;;;28.56;34.15
11952;BME280;6036;41.840;23.486;2022-08-03T13:55:15;90638.78;;;29.10;33.25
11952;BME280;6036;41.840;23.486;2022-08-03T13:57:40;90654.44;;;28.93;33.22